sensor_id;sensor_type;location;lat;lon;timestamp;P1;durP1;ratioP1;P2;durP2;ratioP2
46391;SDS011;32098;49.448;7.904;2023-05-14T00:00:18;57.90;;;5.67;;
46391;SDS011;32098;49.448;7.904;2023-05-14T00:02:45;15.33;;;4.43;;
46391;SDS011;32098;49.448;7.904;2023-05-14T00:05:11;30.43;;;4.50;;
46391;SDS011;32098;49.448;7.904;2023-05-14T00:07:38;17.83;;;4.37;;
46391;SDS011;32098;49.448;7.904;2023-05-14T00:10:04;118.70;;;6.37;;
46391;SDS011;32098;49.448;7.904;2023-05-14T00:12:31;127.70;;;5.93;;
46391;SDS011;32098;49.448;7.904;2023-05-14T00:14:58;119.83;;;6.27;;
46391;SDS011;32098;49.448;7.904;2023-05-14T00:17:24;5.07;;;3.60;;
46391;SDS011;32098;49.448;7.904;2023-05-14T00:19:51;6.53;;;3.93;;
46391;SDS011;32098;49.448;7.904;2023-05-14T00:22:18;16.40;;;4.40;;
46391;SDS011;32098;49.448;7.904;2023-05-14T00:24:44;7.77;;;4.90;;
46391;SDS011;32098;49.448;7.904;2023-05-14T00:27:11;21.33;;;4.60;;
46391;SDS011;32098;49.448;7.904;2023-05-14T00:29:38;9.63;;;4.17;;
46391;SDS011;32098;49.448;7.904;2023-05-14T00:32:05;56.30;;;4.47;;
46391;SDS011;32098;49.448;7.904;2023-05-14T00:34:31;64.33;;;5.27;;
46391;SDS011;32098;49.448;7.904;2023-05-14T00:36:58;57.20;;;4.63;;
46391;SDS011;32098;49.448;7.904;2023-05-14T00:39:24;23.73;;;4.50;;
46391;SDS011;32098;49.448;7.904;2023-05-14T00:41:51;9.63;;;4.33;;
46391;SDS011;32098;49.448;7.904;2023-05-14T00:44:17;4.70;;;3.80;;
46391;SDS011;32098;49.448;7.904;2023-05-14T00:46:44;16.20;;;4.50;;
46391;SDS011;32098;49.448;7.904;2023-05-14T00:49:11;13.67;;;3.90;;
46391;SDS011;32098;49.448;7.904;2023-05-14T00:51:37;22.10;;;3.93;;
46391;SDS011;32098;49.448;7.904;2023-05-14T00:54:04;42.70;;;4.50;;
46391;SDS011;32098;49.448;7.904;2023-05-14T00:56:31;15.57;;;4.17;;
46391;SDS011;32098;49.448;7.904;2023-05-14T00:58:59;16.23;;;4.05;;
46391;SDS011;32098;49.448;7.904;2023-05-14T01:01:25;7.73;;;3.43;;
46391;SDS011;32098;49.448;7.904;2023-05-14T01:03:54;10.43;;;3.73;;
46391;SDS011;32098;49.448;7.904;2023-05-14T01:14:58;4.10;;;3.80;;
46391;SDS011;32098;49.448;7.904;2023-05-14T01:17:31;5.33;;;4.00;;
46391;SDS011;32098;49.448;7.904;2023-05-14T01:20:02;9.13;;;5.47;;
46391;SDS011;32098;49.448;7.904;2023-05-14T01:22:29;6.23;;;3.87;;
46391;SDS011;32098;49.448;7.904;2023-05-14T01:24:56;63.17;;;4.20;;
46391;SDS011;32098;49.448;7.904;2023-05-14T01:30:02;7.63;;;4.00;;
46391;SDS011;32098;49.448;7.904;2023-05-14T01:32:50;5.50;;;3.43;;
46391;SDS011;32098;49.448;7.904;2023-05-14T01:35:22;9.83;;;3.80;;
46391;SDS011;32098;49.448;7.904;2023-05-14T01:37:56;12.77;;;3.70;;
46391;SDS011;32098;49.448;7.904;2023-05-14T01:40:25;70.03;;;4.60;;
46391;SDS011;32098;49.448;7.904;2023-05-14T01:42:53;34.27;;;3.67;;
46391;SDS011;32098;49.448;7.904;2023-05-14T01:45:20;33.97;;;4.30;;
46391;SDS011;32098;49.448;7.904;2023-05-14T01:47:47;65.37;;;4.40;;
46391;SDS011;32098;49.448;7.904;2023-05-14T01:50:14;43.57;;;4.17;;
46391;SDS011;32098;49.448;7.904;2023-05-14T01:52:41;24.87;;;3.83;;
46391;SDS011;32098;49.448;7.904;2023-05-14T01:55:08;29.97;;;3.80;;
46391;SDS011;32098;49.448;7.904;2023-05-14T01:57:35;49.33;;;4.73;;
46391;SDS011;32098;49.448;7.904;2023-05-14T02:00:01;91.00;;;5.27;;
46391;SDS011;32098;49.448;7.904;2023-05-14T02:02:39;41.97;;;3.97;;
46391;SDS011;32098;49.448;7.904;2023-05-14T02:05:07;31.43;;;3.80;;
46391;SDS011;32098;49.448;7.904;2023-05-14T02:07:35;35.10;;;4.13;;
46391;SDS011;32098;49.448;7.904;2023-05-14T02:10:02;15.40;;;3.90;;
46391;SDS011;32098;49.448;7.904;2023-05-14T02:12:29;39.07;;;4.07;;
46391;SDS011;32098;49.448;7.904;2023-05-14T02:14:56;41.67;;;3.93;;
46391;SDS011;32098;49.448;7.904;2023-05-14T02:17:25;12.23;;;3.90;;
46391;SDS011;32098;49.448;7.904;2023-05-14T02:19:52;13.90;;;3.63;;
46391;SDS011;32098;49.448;7.904;2023-05-14T02:22:19;20.27;;;3.70;;
46391;SDS011;32098;49.448;7.904;2023-05-14T02:24:45;58.07;;;4.83;;
46391;SDS011;32098;49.448;7.904;2023-05-14T02:27:12;53.43;;;5.03;;
46391;SDS011;32098;49.448;7.904;2023-05-14T02:29:38;72.53;;;4.93;;
46391;SDS011;32098;49.448;7.904;2023-05-14T02:32:05;106.40;;;5.40;;
46391;SDS011;32098;49.448;7.904;2023-05-14T02:34:32;26.20;;;4.10;;
46391;SDS011;32098;49.448;7.904;2023-05-14T02:36:59;118.03;;;5.63;;
46391;SDS011;32098;49.448;7.904;2023-05-14T02:39:26;67.93;;;4.43;;
46391;SDS011;32098;49.448;7.904;2023-05-14T02:41:52;5.83;;;3.47;;
46391;SDS011;32098;49.448;7.904;2023-05-14T02:44:19;18.90;;;3.70;;
46391;SDS011;32098;49.448;7.904;2023-05-14T02:46:46;4.97;;;3.40;;
46391;SDS011;32098;49.448;7.904;2023-05-14T02:49:13;5.73;;;3.53;;
46391;SDS011;32098;49.448;7.904;2023-05-14T02:51:39;6.27;;;3.60;;
46391;SDS011;32098;49.448;7.904;2023-05-14T02:54:06;7.13;;;3.37;;
46391;SDS011;32098;49.448;7.904;2023-05-14T02:56:32;66.47;;;4.00;;
46391;SDS011;32098;49.448;7.904;2023-05-14T02:58:59;3.50;;;3.20;;
46391;SDS011;32098;49.448;7.904;2023-05-14T03:01:26;23.57;;;3.43;;
46391;SDS011;32098;49.448;7.904;2023-05-14T03:03:53;19.50;;;3.07;;
46391;SDS011;32098;49.448;7.904;2023-05-14T03:06:19;14.13;;;3.23;;
46391;SDS011;32098;49.448;7.904;2023-05-14T03:08:46;3.23;;;2.90;;
46391;SDS011;32098;49.448;7.904;2023-05-14T03:11:12;5.63;;;2.70;;
46391;SDS011;32098;49.448;7.904;2023-05-14T03:13:39;5.20;;;2.60;;
46391;SDS011;32098;49.448;7.904;2023-05-14T03:16:05;4.90;;;2.70;;
46391;SDS011;32098;49.448;7.904;2023-05-14T03:18:32;10.40;;;2.70;;
46391;SDS011;32098;49.448;7.904;2023-05-14T03:21:01;3.47;;;2.70;;
46391;SDS011;32098;49.448;7.904;2023-05-14T03:23:29;11.73;;;2.47;;
46391;SDS011;32098;49.448;7.904;2023-05-14T03:25:57;10.97;;;2.50;;
46391;SDS011;32098;49.448;7.904;2023-05-14T03:28:23;2.40;;;2.20;;
46391;SDS011;32098;49.448;7.904;2023-05-14T03:30:51;2.30;;;2.10;;
46391;SDS011;32098;49.448;7.904;2023-05-14T03:33:17;8.33;;;2.10;;
46391;SDS011;32098;49.448;7.904;2023-05-14T03:35:44;39.90;;;2.80;;
46391;SDS011;32098;49.448;7.904;2023-05-14T03:38:10;4.03;;;2.00;;
46391;SDS011;32098;49.448;7.904;2023-05-14T03:40:37;7.30;;;2.10;;
46391;SDS011;32098;49.448;7.904;2023-05-14T03:43:03;1.90;;;1.80;;
46391;SDS011;32098;49.448;7.904;2023-05-14T03:45:30;12.20;;;2.10;;
46391;SDS011;32098;49.448;7.904;2023-05-14T03:47:57;37.63;;;2.70;;
46391;SDS011;32098;49.448;7.904;2023-05-14T03:50:25;55.33;;;3.30;;
46391;SDS011;32098;49.448;7.904;2023-05-14T03:52:52;21.50;;;2.60;;
46391;SDS011;32098;49.448;7.904;2023-05-14T03:55:18;34.23;;;2.60;;
46391;SDS011;32098;49.448;7.904;2023-05-14T03:57:46;34.20;;;2.77;;
46391;SDS011;32098;49.448;7.904;2023-05-14T04:00:13;4.73;;;2.13;;
46391;SDS011;32098;49.448;7.904;2023-05-14T04:02:43;6.77;;;2.53;;
46391;SDS011;32098;49.448;7.904;2023-05-14T04:05:10;13.47;;;2.50;;
46391;SDS011;32098;49.448;7.904;2023-05-14T04:07:36;12.30;;;2.70;;
46391;SDS011;32098;49.448;7.904;2023-05-14T04:10:03;11.17;;;2.37;;
46391;SDS011;32098;49.448;7.904;2023-05-14T04:12:33;11.53;;;2.50;;
46391;SDS011;32098;49.448;7.904;2023-05-14T04:14:59;16.40;;;2.20;;
46391;SDS011;32098;49.448;7.904;2023-05-14T04:17:26;2.27;;;2.07;;
46391;SDS011;32098;49.448;7.904;2023-05-14T04:19:52;66.53;;;3.50;;
46391;SDS011;32098;49.448;7.904;2023-05-14T04:22:19;26.03;;;2.80;;
46391;SDS011;32098;49.448;7.904;2023-05-14T04:24:45;15.20;;;2.40;;
46391;SDS011;32098;49.448;7.904;2023-05-14T04:27:21;30.97;;;2.60;;
46391;SDS011;32098;49.448;7.904;2023-05-14T04:29:48;26.30;;;2.50;;
46391;SDS011;32098;49.448;7.904;2023-05-14T04:32:15;17.53;;;2.30;;
46391;SDS011;32098;49.448;7.904;2023-05-14T04:34:42;6.93;;;1.90;;
46391;SDS011;32098;49.448;7.904;2023-05-14T04:37:09;33.83;;;2.80;;
46391;SDS011;32098;49.448;7.904;2023-05-14T04:39:36;41.90;;;2.90;;
46391;SDS011;32098;49.448;7.904;2023-05-14T04:42:03;3.27;;;2.83;;
46391;SDS011;32098;49.448;7.904;2023-05-14T04:44:30;17.67;;;2.50;;
46391;SDS011;32098;49.448;7.904;2023-05-14T04:46:56;3.03;;;2.10;;
46391;SDS011;32098;49.448;7.904;2023-05-14T04:49:23;2.43;;;1.80;;
46391;SDS011;32098;49.448;7.904;2023-05-14T04:51:49;23.50;;;2.30;;
46391;SDS011;32098;49.448;7.904;2023-05-14T04:54:16;4.50;;;2.20;;
46391;SDS011;32098;49.448;7.904;2023-05-14T04:56:42;18.80;;;2.60;;
46391;SDS011;32098;49.448;7.904;2023-05-14T04:59:09;5.90;;;2.13;;
46391;SDS011;32098;49.448;7.904;2023-05-14T05:01:35;21.60;;;2.63;;
46391;SDS011;32098;49.448;7.904;2023-05-14T05:04:02;11.87;;;2.43;;
46391;SDS011;32098;49.448;7.904;2023-05-14T05:06:29;19.47;;;2.53;;
46391;SDS011;32098;49.448;7.904;2023-05-14T05:08:55;15.50;;;2.30;;
46391;SDS011;32098;49.448;7.904;2023-05-14T05:11:21;6.83;;;2.13;;
46391;SDS011;32098;49.448;7.904;2023-05-14T05:13:48;31.27;;;2.70;;
46391;SDS011;32098;49.448;7.904;2023-05-14T05:16:15;62.37;;;3.67;;
46391;SDS011;32098;49.448;7.904;2023-05-14T05:18:41;7.40;;;2.27;;
46391;SDS011;32098;49.448;7.904;2023-05-14T05:21:09;2.70;;;2.50;;
46391;SDS011;32098;49.448;7.904;2023-05-14T05:23:36;4.20;;;2.00;;
46391;SDS011;32098;49.448;7.904;2023-05-14T05:26:02;18.67;;;3.00;;
46391;SDS011;32098;49.448;7.904;2023-05-14T05:28:29;9.97;;;2.30;;
46391;SDS011;32098;49.448;7.904;2023-05-14T05:30:55;4.30;;;2.50;;
46391;SDS011;32098;49.448;7.904;2023-05-14T05:33:22;2.43;;;2.23;;
46391;SDS011;32098;49.448;7.904;2023-05-14T05:35:48;3.60;;;2.10;;
46391;SDS011;32098;49.448;7.904;2023-05-14T05:38:15;4.10;;;2.30;;
46391;SDS011;32098;49.448;7.904;2023-05-14T05:40:43;2.60;;;2.40;;
46391;SDS011;32098;49.448;7.904;2023-05-14T05:43:09;3.97;;;2.67;;
46391;SDS011;32098;49.448;7.904;2023-05-14T05:45:36;2.50;;;2.30;;
46391;SDS011;32098;49.448;7.904;2023-05-14T05:48:03;4.20;;;3.03;;
46391;SDS011;32098;49.448;7.904;2023-05-14T05:50:30;2.77;;;2.57;;
46391;SDS011;32098;49.448;7.904;2023-05-14T05:52:57;3.10;;;2.87;;
46391;SDS011;32098;49.448;7.904;2023-05-14T05:55:24;2.83;;;2.63;;
46391;SDS011;32098;49.448;7.904;2023-05-14T05:57:51;2.80;;;2.60;;
46391;SDS011;32098;49.448;7.904;2023-05-14T06:00:17;4.60;;;3.07;;
46391;SDS011;32098;49.448;7.904;2023-05-14T06:02:44;3.57;;;3.27;;
46391;SDS011;32098;49.448;7.904;2023-05-14T06:05:11;3.65;;;3.35;;
46391;SDS011;32098;49.448;7.904;2023-05-14T06:07:38;4.23;;;3.83;;
46391;SDS011;32098;49.448;7.904;2023-05-14T06:10:05;4.03;;;3.60;;
46391;SDS011;32098;49.448;7.904;2023-05-14T06:12:32;4.00;;;3.67;;
46391;SDS011;32098;49.448;7.904;2023-05-14T06:14:58;5.90;;;4.00;;
46391;SDS011;32098;49.448;7.904;2023-05-14T06:17:25;5.80;;;3.80;;
46391;SDS011;32098;49.448;7.904;2023-05-14T06:19:52;5.60;;;3.63;;
46391;SDS011;32098;49.448;7.904;2023-05-14T06:22:18;4.47;;;4.07;;
46391;SDS011;32098;49.448;7.904;2023-05-14T06:24:46;4.63;;;4.23;;
46391;SDS011;32098;49.448;7.904;2023-05-14T06:27:12;4.60;;;4.17;;
46391;SDS011;32098;49.448;7.904;2023-05-14T06:29:39;4.23;;;3.83;;
46391;SDS011;32098;49.448;7.904;2023-05-14T06:32:05;4.60;;;4.15;;
46391;SDS011;32098;49.448;7.904;2023-05-14T06:34:33;4.70;;;4.30;;
46391;SDS011;32098;49.448;7.904;2023-05-14T06:36:59;4.80;;;4.30;;
46391;SDS011;32098;49.448;7.904;2023-05-14T06:39:27;4.80;;;4.40;;
46391;SDS011;32098;49.448;7.904;2023-05-14T06:41:54;4.65;;;4.25;;
46391;SDS011;32098;49.448;7.904;2023-05-14T06:44:21;4.75;;;4.35;;
46391;SDS011;32098;49.448;7.904;2023-05-14T06:46:48;4.80;;;4.40;;
46391;SDS011;32098;49.448;7.904;2023-05-14T06:49:14;5.10;;;4.47;;
46391;SDS011;32098;49.448;7.904;2023-05-14T06:51:41;4.10;;;3.70;;
46391;SDS011;32098;49.448;7.904;2023-05-14T06:54:07;4.50;;;3.75;;
46391;SDS011;32098;49.448;7.904;2023-05-14T06:56:34;4.85;;;3.80;;
46391;SDS011;32098;49.448;7.904;2023-05-14T06:59:00;4.75;;;3.70;;
46391;SDS011;32098;49.448;7.904;2023-05-14T07:01:27;4.47;;;3.60;;
46391;SDS011;32098;49.448;7.904;2023-05-14T07:03:54;5.30;;;4.00;;
46391;SDS011;32098;49.448;7.904;2023-05-14T07:06:20;4.45;;;4.05;;
46391;SDS011;32098;49.448;7.904;2023-05-14T07:08:47;5.05;;;4.45;;
46391;SDS011;32098;49.448;7.904;2023-05-14T07:11:14;5.28;;;4.80;;
46391;SDS011;32098;49.448;7.904;2023-05-14T07:13:41;5.88;;;5.32;;
46391;SDS011;32098;49.448;7.904;2023-05-14T07:16:08;5.63;;;5.13;;
46391;SDS011;32098;49.448;7.904;2023-05-14T07:18:37;5.95;;;4.90;;
46391;SDS011;32098;49.448;7.904;2023-05-14T07:21:04;6.55;;;5.95;;
46391;SDS011;32098;49.448;7.904;2023-05-14T07:23:32;6.20;;;5.70;;
46391;SDS011;32098;49.448;7.904;2023-05-14T07:26:01;7.05;;;6.35;;
46391;SDS011;32098;49.448;7.904;2023-05-14T07:28:28;6.30;;;5.65;;
46391;SDS011;32098;49.448;7.904;2023-05-14T07:30:55;7.45;;;6.13;;
46391;SDS011;32098;49.448;7.904;2023-05-14T07:33:21;6.70;;;6.10;;
46391;SDS011;32098;49.448;7.904;2023-05-14T07:35:48;7.95;;;5.72;;
46391;SDS011;32098;49.448;7.904;2023-05-14T07:38:15;6.35;;;5.70;;
46391;SDS011;32098;49.448;7.904;2023-05-14T07:40:42;6.15;;;5.55;;
46391;SDS011;32098;49.448;7.904;2023-05-14T07:43:09;6.55;;;5.65;;
46391;SDS011;32098;49.448;7.904;2023-05-14T07:45:36;6.13;;;5.53;;
46391;SDS011;32098;49.448;7.904;2023-05-14T07:48:03;7.50;;;5.63;;
46391;SDS011;32098;49.448;7.904;2023-05-14T07:50:30;5.53;;;5.00;;
46391;SDS011;32098;49.448;7.904;2023-05-14T07:52:57;5.53;;;4.95;;
46391;SDS011;32098;49.448;7.904;2023-05-14T07:55:23;5.72;;;5.22;;
46391;SDS011;32098;49.448;7.904;2023-05-14T07:57:50;4.97;;;4.50;;
46391;SDS011;32098;49.448;7.904;2023-05-14T08:00:16;5.60;;;4.80;;
46391;SDS011;32098;49.448;7.904;2023-05-14T08:02:43;4.97;;;4.50;;
46391;SDS011;32098;49.448;7.904;2023-05-14T08:05:10;5.97;;;5.00;;
46391;SDS011;32098;49.448;7.904;2023-05-14T08:07:36;5.65;;;4.63;;
46391;SDS011;32098;49.448;7.904;2023-05-14T08:10:03;4.90;;;4.50;;
46391;SDS011;32098;49.448;7.904;2023-05-14T08:12:30;4.50;;;4.10;;
46391;SDS011;32098;49.448;7.904;2023-05-14T08:14:56;4.40;;;4.00;;
46391;SDS011;32098;49.448;7.904;2023-05-14T08:17:23;4.68;;;4.20;;
46391;SDS011;32098;49.448;7.904;2023-05-14T08:19:49;4.53;;;3.83;;
46391;SDS011;32098;49.448;7.904;2023-05-14T08:22:16;4.95;;;3.70;;
46391;SDS011;32098;49.448;7.904;2023-05-14T08:24:42;4.55;;;4.15;;
46391;SDS011;32098;49.448;7.904;2023-05-14T08:27:09;4.20;;;3.55;;
46391;SDS011;32098;49.448;7.904;2023-05-14T08:29:35;4.65;;;4.05;;
46391;SDS011;32098;49.448;7.904;2023-05-14T08:32:02;3.70;;;3.30;;
46391;SDS011;32098;49.448;7.904;2023-05-14T08:34:37;5.03;;;3.38;;
46391;SDS011;32098;49.448;7.904;2023-05-14T08:37:03;4.78;;;3.60;;
46391;SDS011;32098;49.448;7.904;2023-05-14T08:39:30;4.03;;;3.70;;
46391;SDS011;32098;49.448;7.904;2023-05-14T08:41:56;4.18;;;3.70;;
46391;SDS011;32098;49.448;7.904;2023-05-14T08:44:30;5.60;;;4.00;;
46391;SDS011;32098;49.448;7.904;2023-05-14T08:47:01;4.50;;;4.10;;
46391;SDS011;32098;49.448;7.904;2023-05-14T08:49:41;4.97;;;4.20;;
46391;SDS011;32098;49.448;7.904;2023-05-14T08:52:10;4.70;;;4.30;;
46391;SDS011;32098;49.448;7.904;2023-05-14T08:54:38;5.50;;;4.15;;
46391;SDS011;32098;49.448;7.904;2023-05-14T08:57:06;4.55;;;4.07;;
46391;SDS011;32098;49.448;7.904;2023-05-14T08:59:35;5.30;;;4.03;;
46391;SDS011;32098;49.448;7.904;2023-05-14T09:02:02;7.05;;;4.15;;
46391;SDS011;32098;49.448;7.904;2023-05-14T09:04:32;7.15;;;4.10;;
46391;SDS011;32098;49.448;7.904;2023-05-14T09:07:00;6.22;;;4.30;;
46391;SDS011;32098;49.448;7.904;2023-05-14T09:09:27;5.00;;;4.50;;
46391;SDS011;32098;49.448;7.904;2023-05-14T09:11:54;4.97;;;4.22;;
46391;SDS011;32098;49.448;7.904;2023-05-14T09:14:21;6.13;;;4.57;;
46391;SDS011;32098;49.448;7.904;2023-05-14T09:16:49;4.68;;;3.92;;
46391;SDS011;32098;49.448;7.904;2023-05-14T09:19:16;5.93;;;4.80;;
46391;SDS011;32098;49.448;7.904;2023-05-14T09:21:47;4.80;;;4.03;;
46391;SDS011;32098;49.448;7.904;2023-05-14T09:24:18;4.40;;;3.88;;
46391;SDS011;32098;49.448;7.904;2023-05-14T09:26:49;4.75;;;3.20;;
46391;SDS011;32098;49.448;7.904;2023-05-14T09:29:17;3.72;;;3.40;;
46391;SDS011;32098;49.448;7.904;2023-05-14T09:31:44;4.80;;;3.83;;
46391;SDS011;32098;49.448;7.904;2023-05-14T09:34:10;4.90;;;3.45;;
46391;SDS011;32098;49.448;7.904;2023-05-14T09:36:46;3.97;;;3.63;;
46391;SDS011;32098;49.448;7.904;2023-05-14T09:39:12;3.70;;;2.97;;
46391;SDS011;32098;49.448;7.904;2023-05-14T09:41:38;4.13;;;3.45;;
46391;SDS011;32098;49.448;7.904;2023-05-14T09:44:05;3.33;;;3.03;;
46391;SDS011;32098;49.448;7.904;2023-05-14T09:46:32;4.13;;;3.22;;
46391;SDS011;32098;49.448;7.904;2023-05-14T09:48:58;3.72;;;3.40;;
46391;SDS011;32098;49.448;7.904;2023-05-14T09:51:25;3.58;;;3.15;;
46391;SDS011;32098;49.448;7.904;2023-05-14T09:53:55;3.67;;;3.30;;
46391;SDS011;32098;49.448;7.904;2023-05-14T09:56:22;3.47;;;3.17;;
46391;SDS011;32098;49.448;7.904;2023-05-14T09:58:48;3.65;;;3.30;;
46391;SDS011;32098;49.448;7.904;2023-05-14T10:01:15;3.67;;;3.28;;
46391;SDS011;32098;49.448;7.904;2023-05-14T10:03:44;3.50;;;3.20;;
46391;SDS011;32098;49.448;7.904;2023-05-14T10:06:11;3.53;;;3.22;;
46391;SDS011;32098;49.448;7.904;2023-05-14T10:08:42;3.25;;;2.95;;
46391;SDS011;32098;49.448;7.904;2023-05-14T10:11:13;4.15;;;3.15;;
46391;SDS011;32098;49.448;7.904;2023-05-14T10:13:48;4.10;;;3.70;;
46391;SDS011;32098;49.448;7.904;2023-05-14T10:16:25;4.25;;;3.28;;
46391;SDS011;32098;49.448;7.904;2023-05-14T10:19:03;3.47;;;3.15;;
46391;SDS011;32098;49.448;7.904;2023-05-14T10:21:33;3.60;;;3.03;;
46391;SDS011;32098;49.448;7.904;2023-05-14T10:24:02;5.03;;;3.47;;
46391;SDS011;32098;49.448;7.904;2023-05-14T10:26:33;5.70;;;3.65;;
46391;SDS011;32098;49.448;7.904;2023-05-14T10:29:05;4.35;;;3.40;;
46391;SDS011;32098;49.448;7.904;2023-05-14T10:34:36;4.00;;;3.63;;
46391;SDS011;32098;49.448;7.904;2023-05-14T10:37:04;3.65;;;3.33;;
46391;SDS011;32098;49.448;7.904;2023-05-14T10:42:09;3.72;;;3.10;;
46391;SDS011;32098;49.448;7.904;2023-05-14T10:44:40;3.47;;;3.17;;
46391;SDS011;32098;49.448;7.904;2023-05-14T10:47:12;3.67;;;3.38;;
46391;SDS011;32098;49.448;7.904;2023-05-14T10:49:40;3.30;;;3.00;;
46391;SDS011;32098;49.448;7.904;2023-05-14T10:52:09;6.25;;;3.58;;
46391;SDS011;32098;49.448;7.904;2023-05-14T10:54:37;3.50;;;3.20;;
46391;SDS011;32098;49.448;7.904;2023-05-14T10:57:08;3.47;;;3.17;;
46391;SDS011;32098;49.448;7.904;2023-05-14T10:59:36;3.90;;;3.50;;
46391;SDS011;32098;49.448;7.904;2023-05-14T11:02:17;5.78;;;3.70;;
46391;SDS011;32098;49.448;7.904;2023-05-14T11:04:52;4.03;;;3.63;;
46391;SDS011;32098;49.448;7.904;2023-05-14T11:07:26;3.85;;;3.28;;
46391;SDS011;32098;49.448;7.904;2023-05-14T11:12:28;3.88;;;3.40;;
46391;SDS011;32098;49.448;7.904;2023-05-14T11:14:56;3.85;;;3.45;;
46391;SDS011;32098;49.448;7.904;2023-05-14T11:17:27;4.00;;;3.60;;
46391;SDS011;32098;49.448;7.904;2023-05-14T11:19:56;4.32;;;3.85;;
46391;SDS011;32098;49.448;7.904;2023-05-14T11:22:23;4.38;;;3.72;;
46391;SDS011;32098;49.448;7.904;2023-05-14T11:24:50;4.32;;;3.35;;
46391;SDS011;32098;49.448;7.904;2023-05-14T11:27:17;5.30;;;3.83;;
46391;SDS011;32098;49.448;7.904;2023-05-14T11:29:44;4.13;;;3.28;;
46391;SDS011;32098;49.448;7.904;2023-05-14T11:32:12;3.90;;;3.50;;
46391;SDS011;32098;49.448;7.904;2023-05-14T11:34:39;3.40;;;3.10;;
46391;SDS011;32098;49.448;7.904;2023-05-14T11:37:07;4.40;;;3.15;;
46391;SDS011;32098;49.448;7.904;2023-05-14T11:39:35;2.90;;;2.58;;
46391;SDS011;32098;49.448;7.904;2023-05-14T11:42:09;3.17;;;2.88;;
46391;SDS011;32098;49.448;7.904;2023-05-14T11:44:42;4.15;;;3.47;;
46391;SDS011;32098;49.448;7.904;2023-05-14T11:47:09;5.45;;;3.17;;
46391;SDS011;32098;49.448;7.904;2023-05-14T11:49:37;4.43;;;3.20;;
46391;SDS011;32098;49.448;7.904;2023-05-14T11:52:04;3.22;;;2.92;;
46391;SDS011;32098;49.448;7.904;2023-05-14T11:54:32;4.38;;;3.40;;
46391;SDS011;32098;49.448;7.904;2023-05-14T11:57:00;3.33;;;2.97;;
46391;SDS011;32098;49.448;7.904;2023-05-14T11:59:30;3.40;;;3.10;;
46391;SDS011;32098;49.448;7.904;2023-05-14T12:01:57;3.67;;;3.10;;
46391;SDS011;32098;49.448;7.904;2023-05-14T12:04:24;3.70;;;2.90;;
46391;SDS011;32098;49.448;7.904;2023-05-14T12:06:51;4.68;;;3.28;;
46391;SDS011;32098;49.448;7.904;2023-05-14T12:09:18;3.45;;;3.13;;
46391;SDS011;32098;49.448;7.904;2023-05-14T12:11:46;2.80;;;2.60;;
46391;SDS011;32098;49.448;7.904;2023-05-14T12:14:14;3.28;;;3.08;;
46391;SDS011;32098;49.448;7.904;2023-05-14T12:16:42;3.30;;;3.00;;
46391;SDS011;32098;49.448;7.904;2023-05-14T12:19:10;4.22;;;3.08;;
46391;SDS011;32098;49.448;7.904;2023-05-14T12:21:39;4.10;;;3.28;;
46391;SDS011;32098;49.448;7.904;2023-05-14T12:24:09;3.45;;;3.15;;
46391;SDS011;32098;49.448;7.904;2023-05-14T12:26:37;3.30;;;3.00;;
46391;SDS011;32098;49.448;7.904;2023-05-14T12:29:04;4.15;;;3.30;;
46391;SDS011;32098;49.448;7.904;2023-05-14T12:31:34;3.25;;;2.95;;
46391;SDS011;32098;49.448;7.904;2023-05-14T12:34:02;3.50;;;3.20;;
46391;SDS011;32098;49.448;7.904;2023-05-14T12:36:29;3.13;;;2.88;;
46391;SDS011;32098;49.448;7.904;2023-05-14T12:38:58;3.50;;;3.20;;
46391;SDS011;32098;49.448;7.904;2023-05-14T12:41:27;3.15;;;2.85;;
46391;SDS011;32098;49.448;7.904;2023-05-14T12:43:53;3.75;;;3.40;;
46391;SDS011;32098;49.448;7.904;2023-05-14T12:46:20;3.22;;;2.92;;
46391;SDS011;32098;49.448;7.904;2023-05-14T12:48:46;3.30;;;3.00;;
46391;SDS011;32098;49.448;7.904;2023-05-14T12:51:14;3.28;;;2.97;;
46391;SDS011;32098;49.448;7.904;2023-05-14T12:53:41;6.40;;;3.35;;
46391;SDS011;32098;49.448;7.904;2023-05-14T12:56:07;3.40;;;3.10;;
46391;SDS011;32098;49.448;7.904;2023-05-14T12:58:34;7.50;;;3.78;;
46391;SDS011;32098;49.448;7.904;2023-05-14T13:01:01;3.95;;;3.55;;
46391;SDS011;32098;49.448;7.904;2023-05-14T13:03:27;4.47;;;3.42;;
46391;SDS011;32098;49.448;7.904;2023-05-14T13:05:54;3.80;;;3.40;;
46391;SDS011;32098;49.448;7.904;2023-05-14T13:08:21;4.15;;;3.22;;
46391;SDS011;32098;49.448;7.904;2023-05-14T13:10:51;4.25;;;3.85;;
46391;SDS011;32098;49.448;7.904;2023-05-14T13:13:18;4.45;;;3.70;;
46391;SDS011;32098;49.448;7.904;2023-05-14T13:15:45;4.10;;;3.33;;
46391;SDS011;32098;49.448;7.904;2023-05-14T13:18:12;4.78;;;3.15;;
46391;SDS011;32098;49.448;7.904;2023-05-14T13:20:39;3.65;;;3.35;;
46391;SDS011;32098;49.448;7.904;2023-05-14T13:23:08;3.42;;;3.13;;
46391;SDS011;32098;49.448;7.904;2023-05-14T13:25:34;4.38;;;3.05;;
46391;SDS011;32098;49.448;7.904;2023-05-14T13:28:01;4.13;;;3.17;;
46391;SDS011;32098;49.448;7.904;2023-05-14T13:30:28;3.17;;;2.88;;
46391;SDS011;32098;49.448;7.904;2023-05-14T13:32:54;2.97;;;2.67;;
46391;SDS011;32098;49.448;7.904;2023-05-14T13:35:21;4.78;;;2.40;;
46391;SDS011;32098;49.448;7.904;2023-05-14T13:37:48;2.88;;;2.40;;
46391;SDS011;32098;49.448;7.904;2023-05-14T13:40:14;2.50;;;2.30;;
46391;SDS011;32098;49.448;7.904;2023-05-14T13:42:42;2.70;;;2.50;;
46391;SDS011;32098;49.448;7.904;2023-05-14T13:45:09;3.38;;;2.63;;
46391;SDS011;32098;49.448;7.904;2023-05-14T13:47:36;2.60;;;2.40;;
46391;SDS011;32098;49.448;7.904;2023-05-14T13:50:05;2.80;;;2.50;;
46391;SDS011;32098;49.448;7.904;2023-05-14T13:52:32;3.33;;;3.00;;
46391;SDS011;32098;49.448;7.904;2023-05-14T13:54:58;3.58;;;2.70;;
46391;SDS011;32098;49.448;7.904;2023-05-14T13:57:25;2.95;;;2.40;;
46391;SDS011;32098;49.448;7.904;2023-05-14T13:59:51;2.45;;;2.33;;
46391;SDS011;32098;49.448;7.904;2023-05-14T14:02:18;2.50;;;2.30;;
46391;SDS011;32098;49.448;7.904;2023-05-14T14:04:44;2.38;;;2.17;;
46391;SDS011;32098;49.448;7.904;2023-05-14T14:07:11;2.38;;;2.17;;
46391;SDS011;32098;49.448;7.904;2023-05-14T14:09:37;2.85;;;2.38;;
46391;SDS011;32098;49.448;7.904;2023-05-14T14:12:04;2.38;;;2.17;;
46391;SDS011;32098;49.448;7.904;2023-05-14T14:14:31;2.47;;;2.28;;
46391;SDS011;32098;49.448;7.904;2023-05-14T14:16:57;2.33;;;2.15;;
46391;SDS011;32098;49.448;7.904;2023-05-14T14:19:24;2.78;;;2.58;;
46391;SDS011;32098;49.448;7.904;2023-05-14T14:21:50;2.90;;;2.67;;
46391;SDS011;32098;49.448;7.904;2023-05-14T14:24:17;2.85;;;2.55;;
46391;SDS011;32098;49.448;7.904;2023-05-14T14:26:43;2.90;;;2.70;;
46391;SDS011;32098;49.448;7.904;2023-05-14T14:29:10;3.03;;;2.42;;
46391;SDS011;32098;49.448;7.904;2023-05-14T14:31:36;2.30;;;2.10;;
46391;SDS011;32098;49.448;7.904;2023-05-14T14:34:02;2.72;;;2.10;;
46391;SDS011;32098;49.448;7.904;2023-05-14T14:36:29;2.30;;;2.10;;
46391;SDS011;32098;49.448;7.904;2023-05-14T14:38:56;2.25;;;2.05;;
46391;SDS011;32098;49.448;7.904;2023-05-14T14:41:23;3.83;;;2.50;;
46391;SDS011;32098;49.448;7.904;2023-05-14T14:43:49;2.50;;;2.30;;
46391;SDS011;32098;49.448;7.904;2023-05-14T14:46:16;2.70;;;2.50;;
46391;SDS011;32098;49.448;7.904;2023-05-14T14:48:42;2.70;;;2.50;;
46391;SDS011;32098;49.448;7.904;2023-05-14T14:51:09;2.50;;;2.30;;
46391;SDS011;32098;49.448;7.904;2023-05-14T14:53:36;2.50;;;2.30;;
46391;SDS011;32098;49.448;7.904;2023-05-14T14:56:03;2.60;;;2.40;;
46391;SDS011;32098;49.448;7.904;2023-05-14T14:58:29;2.63;;;2.42;;
46391;SDS011;32098;49.448;7.904;2023-05-14T15:00:56;2.47;;;2.08;;
46391;SDS011;32098;49.448;7.904;2023-05-14T15:03:23;2.55;;;2.35;;
46391;SDS011;32098;49.448;7.904;2023-05-14T15:05:50;2.55;;;2.30;;